sensor_id;sensor_type;location;lat;lon;timestamp;temperature;humidity
11142;DHT22;5625;50.122;19.864;2022-09-01T00:01:46;16.10;1.00
11142;DHT22;5625;50.122;19.864;2022-09-01T00:04:16;16.10;1.00
11142;DHT22;5625;50.122;19.864;2022-09-01T00:06:46;16.10;1.00
11142;DHT22;5625;50.122;19.864;2022-09-01T00:09:16;16.10;1.00
11142;DHT22;5625;50.122;19.864;2022-09-01T00:11:47;16.10;1.00
11142;DHT22;5625;50.122;19.864;2022-09-01T00:14:17;16.00;1.00
11142;DHT22;5625;50.122;19.864;2022-09-01T00:16:58;16.10;1.00
11142;DHT22;5625;50.122;19.864;2022-09-01T00:19:27;16.10;1.00
11142;DHT22;5625;50.122;19.864;2022-09-01T00:21:56;16.00;1.00
11142;DHT22;5625;50.122;19.864;2022-09-01T00:24:25;16.10;1.00
11142;DHT22;5625;50.122;19.864;2022-09-01T00:26:54;16.10;1.00
11142;DHT22;5625;50.122;19.864;2022-09-01T00:29:24;16.00;1.00
11142;DHT22;5625;50.122;19.864;2022-09-01T00:31:52;16.00;1.00
11142;DHT22;5625;50.122;19.864;2022-09-01T00:34:22;15.90;1.00
11142;DHT22;5625;50.122;19.864;2022-09-01T00:36:50;15.90;1.00
11142;DHT22;5625;50.122;19.864;2022-09-01T00:39:18;15.90;1.00
11142;DHT22;5625;50.122;19.864;2022-09-01T00:41:46;15.90;1.00
11142;DHT22;5625;50.122;19.864;2022-09-01T00:44:19;15.90;1.00
11142;DHT22;5625;50.122;19.864;2022-09-01T00:46:51;15.80;1.00
11142;DHT22;5625;50.122;19.864;2022-09-01T00:49:31;15.80;1.00
11142;DHT22;5625;50.122;19.864;2022-09-01T00:52:04;15.80;1.00
11142;DHT22;5625;50.122;19.864;2022-09-01T00:54:36;15.90;1.00
11142;DHT22;5625;50.122;19.864;2022-09-01T00:57:08;15.80;1.00
11142;DHT22;5625;50.122;19.864;2022-09-01T00:59:39;15.90;1.00
11142;DHT22;5625;50.122;19.864;2022-09-01T01:02:08;15.80;1.00
11142;DHT22;5625;50.122;19.864;2022-09-01T01:04:38;15.80;1.00
11142;DHT22;5625;50.122;19.864;2022-09-01T01:07:06;15.80;1.00
11142;DHT22;5625;50.122;19.864;2022-09-01T01:09:39;15.70;1.00
11142;DHT22;5625;50.122;19.864;2022-09-01T01:12:08;15.70;1.00
11142;DHT22;5625;50.122;19.864;2022-09-01T01:14:39;15.80;1.00
11142;DHT22;5625;50.122;19.864;2022-09-01T01:17:11;15.70;1.00
11142;DHT22;5625;50.122;19.864;2022-09-01T01:19:42;15.70;1.00
11142;DHT22;5625;50.122;19.864;2022-09-01T01:22:36;15.70;1.00
11142;DHT22;5625;50.122;19.864;2022-09-01T01:25:25;15.60;1.00
11142;DHT22;5625;50.122;19.864;2022-09-01T01:28:06;15.50;1.00
11142;DHT22;5625;50.122;19.864;2022-09-01T01:30:35;15.50;1.00
11142;DHT22;5625;50.122;19.864;2022-09-01T01:33:06;15.50;1.00
11142;DHT22;5625;50.122;19.864;2022-09-01T01:35:34;15.40;1.00
11142;DHT22;5625;50.122;19.864;2022-09-01T01:38:03;15.40;1.00
11142;DHT22;5625;50.122;19.864;2022-09-01T01:40:36;15.50;1.00
11142;DHT22;5625;50.122;19.864;2022-09-01T01:43:05;15.40;1.00
11142;DHT22;5625;50.122;19.864;2022-09-01T01:45:33;15.40;1.00
11142;DHT22;5625;50.122;19.864;2022-09-01T01:48:02;15.40;1.00
11142;DHT22;5625;50.122;19.864;2022-09-01T01:50:36;15.40;1.00
11142;DHT22;5625;50.122;19.864;2022-09-01T01:53:06;15.40;1.00
11142;DHT22;5625;50.122;19.864;2022-09-01T01:55:39;15.40;1.00
11142;DHT22;5625;50.122;19.864;2022-09-01T01:58:07;15.30;1.00
11142;DHT22;5625;50.122;19.864;2022-09-01T02:00:38;15.40;1.00
11142;DHT22;5625;50.122;19.864;2022-09-01T02:03:09;15.30;1.00
11142;DHT22;5625;50.122;19.864;2022-09-01T02:05:39;15.30;1.00
11142;DHT22;5625;50.122;19.864;2022-09-01T02:08:09;15.20;1.00
11142;DHT22;5625;50.122;19.864;2022-09-01T02:10:41;15.20;1.00
11142;DHT22;5625;50.122;19.864;2022-09-01T02:13:11;15.20;2.60
11142;DHT22;5625;50.122;19.864;2022-09-01T02:15:45;15.20;3.90
11142;DHT22;5625;50.122;19.864;2022-09-01T02:18:15;15.20;7.70
11142;DHT22;5625;50.122;19.864;2022-09-01T02:20:44;15.20;6.90
11142;DHT22;5625;50.122;19.864;2022-09-01T02:23:13;15.20;6.00
11142;DHT22;5625;50.122;19.864;2022-09-01T02:25:52;15.20;6.40
11142;DHT22;5625;50.122;19.864;2022-09-01T02:28:42;15.20;4.80
11142;DHT22;5625;50.122;19.864;2022-09-01T02:31:11;15.20;6.90
11142;DHT22;5625;50.122;19.864;2022-09-01T02:33:40;15.20;7.80
11142;DHT22;5625;50.122;19.864;2022-09-01T02:36:13;15.20;8.30
11142;DHT22;5625;50.122;19.864;2022-09-01T02:38:44;15.10;9.80
11142;DHT22;5625;50.122;19.864;2022-09-01T02:41:21;15.20;9.30
11142;DHT22;5625;50.122;19.864;2022-09-01T02:43:51;15.20;7.50
11142;DHT22;5625;50.122;19.864;2022-09-01T02:46:19;15.20;7.90
11142;DHT22;5625;50.122;19.864;2022-09-01T02:48:50;15.20;9.00
11142;DHT22;5625;50.122;19.864;2022-09-01T02:51:21;15.20;9.90
11142;DHT22;5625;50.122;19.864;2022-09-01T02:53:50;15.10;12.20
11142;DHT22;5625;50.122;19.864;2022-09-01T02:56:22;15.10;12.60
11142;DHT22;5625;50.122;19.864;2022-09-01T02:58:51;15.10;12.90
11142;DHT22;5625;50.122;19.864;2022-09-01T03:01:23;15.10;12.60
11142;DHT22;5625;50.122;19.864;2022-09-01T03:03:53;15.20;11.50
11142;DHT22;5625;50.122;19.864;2022-09-01T03:06:22;15.20;9.40
11142;DHT22;5625;50.122;19.864;2022-09-01T03:08:51;15.20;8.40
11142;DHT22;5625;50.122;19.864;2022-09-01T03:11:21;15.20;8.70
11142;DHT22;5625;50.122;19.864;2022-09-01T03:13:51;15.20;6.00
11142;DHT22;5625;50.122;19.864;2022-09-01T03:16:20;15.20;9.20
11142;DHT22;5625;50.122;19.864;2022-09-01T03:18:49;15.20;8.30
11142;DHT22;5625;50.122;19.864;2022-09-01T03:21:18;15.20;11.90
11142;DHT22;5625;50.122;19.864;2022-09-01T03:23:50;15.20;8.90
11142;DHT22;5625;50.122;19.864;2022-09-01T03:26:22;15.20;13.90
11142;DHT22;5625;50.122;19.864;2022-09-01T03:28:50;15.20;16.80
11142;DHT22;5625;50.122;19.864;2022-09-01T03:31:19;15.10;17.30
11142;DHT22;5625;50.122;19.864;2022-09-01T03:33:48;15.10;16.50
11142;DHT22;5625;50.122;19.864;2022-09-01T03:36:16;15.10;16.90
11142;DHT22;5625;50.122;19.864;2022-09-01T03:38:46;15.10;16.50
11142;DHT22;5625;50.122;19.864;2022-09-01T03:41:17;15.10;15.40
11142;DHT22;5625;50.122;19.864;2022-09-01T03:43:47;15.10;16.30
11142;DHT22;5625;50.122;19.864;2022-09-01T03:46:17;15.10;16.20
11142;DHT22;5625;50.122;19.864;2022-09-01T03:48:49;15.00;15.70
11142;DHT22;5625;50.122;19.864;2022-09-01T03:51:18;15.00;17.70
11142;DHT22;5625;50.122;19.864;2022-09-01T03:53:49;15.00;15.50
11142;DHT22;5625;50.122;19.864;2022-09-01T03:56:20;15.10;15.30
11142;DHT22;5625;50.122;19.864;2022-09-01T03:58:52;15.10;16.60
11142;DHT22;5625;50.122;19.864;2022-09-01T04:01:20;15.00;18.10
11142;DHT22;5625;50.122;19.864;2022-09-01T04:03:48;15.00;19.40
11142;DHT22;5625;50.122;19.864;2022-09-01T04:06:18;14.90;20.20
11142;DHT22;5625;50.122;19.864;2022-09-01T04:08:49;14.90;22.00
11142;DHT22;5625;50.122;19.864;2022-09-01T04:11:23;14.90;23.70
11142;DHT22;5625;50.122;19.864;2022-09-01T04:13:52;14.90;25.30
11142;DHT22;5625;50.122;19.864;2022-09-01T04:16:24;14.80;25.80
11142;DHT22;5625;50.122;19.864;2022-09-01T04:19:12;14.80;26.50
11142;DHT22;5625;50.122;19.864;2022-09-01T04:21:47;14.80;31.80
11142;DHT22;5625;50.122;19.864;2022-09-01T04:24:17;14.80;32.80
11142;DHT22;5625;50.122;19.864;2022-09-01T04:26:46;14.80;33.40
11142;DHT22;5625;50.122;19.864;2022-09-01T04:29:17;14.80;35.90
11142;DHT22;5625;50.122;19.864;2022-09-01T04:31:49;14.70;37.00
11142;DHT22;5625;50.122;19.864;2022-09-01T04:34:19;14.70;39.90
11142;DHT22;5625;50.122;19.864;2022-09-01T04:36:48;14.70;41.20
11142;DHT22;5625;50.122;19.864;2022-09-01T04:39:22;14.70;40.30
11142;DHT22;5625;50.122;19.864;2022-09-01T04:41:50;14.70;42.60
11142;DHT22;5625;50.122;19.864;2022-09-01T04:44:21;14.70;44.20
11142;DHT22;5625;50.122;19.864;2022-09-01T04:46:51;14.70;45.10
11142;DHT22;5625;50.122;19.864;2022-09-01T04:49:19;14.60;45.80
11142;DHT22;5625;50.122;19.864;2022-09-01T04:51:50;14.60;46.90
11142;DHT22;5625;50.122;19.864;2022-09-01T04:54:21;14.60;46.00
11142;DHT22;5625;50.122;19.864;2022-09-01T04:56:50;14.70;46.00
11142;DHT22;5625;50.122;19.864;2022-09-01T04:59:22;14.70;43.70
11142;DHT22;5625;50.122;19.864;2022-09-01T05:01:52;14.70;44.50
11142;DHT22;5625;50.122;19.864;2022-09-01T05:04:23;14.60;44.50
11142;DHT22;5625;50.122;19.864;2022-09-01T05:06:54;14.60;44.90
11142;DHT22;5625;50.122;19.864;2022-09-01T05:09:26;14.70;43.10
11142;DHT22;5625;50.122;19.864;2022-09-01T05:11:56;14.70;43.10
11142;DHT22;5625;50.122;19.864;2022-09-01T05:14:26;14.70;41.20
11142;DHT22;5625;50.122;19.864;2022-09-01T05:16:56;14.80;39.20
11142;DHT22;5625;50.122;19.864;2022-09-01T05:19:25;14.80;36.80
11142;DHT22;5625;50.122;19.864;2022-09-01T05:21:56;14.90;29.80
11142;DHT22;5625;50.122;19.864;2022-09-01T05:24:27;15.20;24.50
11142;DHT22;5625;50.122;19.864;2022-09-01T05:26:57;15.50;16.80
11142;DHT22;5625;50.122;19.864;2022-09-01T05:29:28;15.80;2.10
11142;DHT22;5625;50.122;19.864;2022-09-01T05:31:56;16.20;1.00
11142;DHT22;5625;50.122;19.864;2022-09-01T05:34:24;16.40;1.00
11142;DHT22;5625;50.122;19.864;2022-09-01T05:36:55;16.70;1.00
11142;DHT22;5625;50.122;19.864;2022-09-01T05:39:25;16.80;1.00
11142;DHT22;5625;50.122;19.864;2022-09-01T05:41:54;16.90;1.00
11142;DHT22;5625;50.122;19.864;2022-09-01T05:44:22;17.10;1.00
11142;DHT22;5625;50.122;19.864;2022-09-01T05:46:52;17.70;1.00
11142;DHT22;5625;50.122;19.864;2022-09-01T05:49:21;18.20;1.00
11142;DHT22;5625;50.122;19.864;2022-09-01T05:51:50;18.60;1.00
11142;DHT22;5625;50.122;19.864;2022-09-01T05:54:25;19.10;1.00
11142;DHT22;5625;50.122;19.864;2022-09-01T05:56:55;19.40;1.00
11142;DHT22;5625;50.122;19.864;2022-09-01T05:59:43;19.90;99.90
11142;DHT22;5625;50.122;19.864;2022-09-01T06:02:22;20.20;99.90
11142;DHT22;5625;50.122;19.864;2022-09-01T06:04:52;20.30;99.90
11142;DHT22;5625;50.122;19.864;2022-09-01T06:07:23;20.90;99.90
11142;DHT22;5625;50.122;19.864;2022-09-01T06:09:54;21.50;99.90
11142;DHT22;5625;50.122;19.864;2022-09-01T06:12:22;21.80;99.90
11142;DHT22;5625;50.122;19.864;2022-09-01T06:14:54;21.50;99.90
11142;DHT22;5625;50.122;19.864;2022-09-01T06:17:25;21.70;99.90
11142;DHT22;5625;50.122;19.864;2022-09-01T06:20:00;21.50;93.20
11142;DHT22;5625;50.122;19.864;2022-09-01T06:22:36;21.60;93.10
11142;DHT22;5625;50.122;19.864;2022-09-01T06:25:06;22.00;71.30
11142;DHT22;5625;50.122;19.864;2022-09-01T06:27:34;22.20;25.60
11142;DHT22;5625;50.122;19.864;2022-09-01T06:30:07;22.70;1.00
11142;DHT22;5625;50.122;19.864;2022-09-01T06:32:42;23.30;99.90
11142;DHT22;5625;50.122;19.864;2022-09-01T06:35:11;24.00;99.90
11142;DHT22;5625;50.122;19.864;2022-09-01T06:37:41;24.40;1.00
11142;DHT22;5625;50.122;19.864;2022-09-01T06:40:11;25.00;1.00
11142;DHT22;5625;50.122;19.864;2022-09-01T06:42:44;25.60;99.90
11142;DHT22;5625;50.122;19.864;2022-09-01T06:45:13;25.90;98.40
11142;DHT22;5625;50.122;19.864;2022-09-01T06:47:44;25.70;1.00
11142;DHT22;5625;50.122;19.864;2022-09-01T06:50:15;25.30;99.90
11142;DHT22;5625;50.122;19.864;2022-09-01T06:53:04;25.20;99.90
11142;DHT22;5625;50.122;19.864;2022-09-01T06:55:56;25.00;99.90
11142;DHT22;5625;50.122;19.864;2022-09-01T06:58:24;25.20;99.90
11142;DHT22;5625;50.122;19.864;2022-09-01T07:00:53;25.60;99.90
11142;DHT22;5625;50.122;19.864;2022-09-01T07:03:22;25.30;99.90
11142;DHT22;5625;50.122;19.864;2022-09-01T07:05:50;25.50;99.90
11142;DHT22;5625;50.122;19.864;2022-09-01T07:08:38;26.10;1.00
11142;DHT22;5625;50.122;19.864;2022-09-01T07:11:28;26.90;99.90
11142;DHT22;5625;50.122;19.864;2022-09-01T07:14:18;27.30;42.20
11142;DHT22;5625;50.122;19.864;2022-09-01T07:16:48;28.00;99.90
11142;DHT22;5625;50.122;19.864;2022-09-01T07:19:37;28.20;99.90
11142;DHT22;5625;50.122;19.864;2022-09-01T07:22:21;28.20;1.00
11142;DHT22;5625;50.122;19.864;2022-09-01T07:25:09;28.40;99.90
11142;DHT22;5625;50.122;19.864;2022-09-01T07:27:40;28.30;99.90
11142;DHT22;5625;50.122;19.864;2022-09-01T07:30:11;28.00;99.90
11142;DHT22;5625;50.122;19.864;2022-09-01T07:32:39;28.30;99.90
11142;DHT22;5625;50.122;19.864;2022-09-01T07:35:17;28.70;40.50
11142;DHT22;5625;50.122;19.864;2022-09-01T07:37:47;28.90;1.00
11142;DHT22;5625;50.122;19.864;2022-09-01T07:40:36;29.10;1.00
11142;DHT22;5625;50.122;19.864;2022-09-01T07:43:25;29.70;1.00
11142;DHT22;5625;50.122;19.864;2022-09-01T07:46:02;30.00;99.90
11142;DHT22;5625;50.122;19.864;2022-09-01T07:48:53;30.20;99.90
11142;DHT22;5625;50.122;19.864;2022-09-01T07:51:42;30.00;99.90
11142;DHT22;5625;50.122;19.864;2022-09-01T07:54:11;30.00;99.90
11142;DHT22;5625;50.122;19.864;2022-09-01T07:56:39;30.10;99.90
11142;DHT22;5625;50.122;19.864;2022-09-01T07:59:10;30.10;99.90
11142;DHT22;5625;50.122;19.864;2022-09-01T08:01:41;30.60;99.90
11142;DHT22;5625;50.122;19.864;2022-09-01T08:04:10;30.40;99.90
11142;DHT22;5625;50.122;19.864;2022-09-01T08:06:38;30.10;99.90
11142;DHT22;5625;50.122;19.864;2022-09-01T08:09:09;30.10;99.90
11142;DHT22;5625;50.122;19.864;2022-09-01T08:11:58;30.00;99.90
11142;DHT22;5625;50.122;19.864;2022-09-01T08:14:29;29.70;99.90
11142;DHT22;5625;50.122;19.864;2022-09-01T08:17:00;30.00;99.90
11142;DHT22;5625;50.122;19.864;2022-09-01T08:19:49;29.50;99.30
11142;DHT22;5625;50.122;19.864;2022-09-01T08:22:17;29.90;93.20
11142;DHT22;5625;50.122;19.864;2022-09-01T08:24:50;30.20;83.70
11142;DHT22;5625;50.122;19.864;2022-09-01T08:27:19;30.30;9.60
11142;DHT22;5625;50.122;19.864;2022-09-01T08:29:47;30.50;6.80
11142;DHT22;5625;50.122;19.864;2022-09-01T08:32:15;30.70;1.00
11142;DHT22;5625;50.122;19.864;2022-09-01T08:34:43;31.10;1.00
11142;DHT22;5625;50.122;19.864;2022-09-01T08:37:11;31.20;1.00
11142;DHT22;5625;50.122;19.864;2022-09-01T08:39:39;31.30;1.00
11142;DHT22;5625;50.122;19.864;2022-09-01T08:42:16;31.60;1.00
11142;DHT22;5625;50.122;19.864;2022-09-01T08:44:52;31.50;1.00
11142;DHT22;5625;50.122;19.864;2022-09-01T08:47:24;31.20;1.00
11142;DHT22;5625;50.122;19.864;2022-09-01T08:50:05;30.80;1.00
11142;DHT22;5625;50.122;19.864;2022-09-01T08:52:37;31.00;1.00
11142;DHT22;5625;50.122;19.864;2022-09-01T08:55:13;31.10;1.00
11142;DHT22;5625;50.122;19.864;2022-09-01T08:57:45;30.70;1.00
11142;DHT22;5625;50.122;19.864;2022-09-01T09:00:16;31.00;1.00
11142;DHT22;5625;50.122;19.864;2022-09-01T09:02:55;31.00;99.90
11142;DHT22;5625;50.122;19.864;2022-09-01T09:05:32;31.10;99.90
11142;DHT22;5625;50.122;19.864;2022-09-01T09:08:27;31.10;99.90
11142;DHT22;5625;50.122;19.864;2022-09-01T09:11:01;30.80;99.90
11142;DHT22;5625;50.122;19.864;2022-09-01T09:13:53;31.40;99.90
11142;DHT22;5625;50.122;19.864;2022-09-01T09:16:27;31.40;99.90
11142;DHT22;5625;50.122;19.864;2022-09-01T09:19:01;31.10;99.90
11142;DHT22;5625;50.122;19.864;2022-09-01T09:21:34;30.90;99.90
11142;DHT22;5625;50.122;19.864;2022-09-01T09:24:09;30.90;99.90
11142;DHT22;5625;50.122;19.864;2022-09-01T09:26:48;31.00;99.90
11142;DHT22;5625;50.122;19.864;2022-09-01T09:29:18;31.50;99.90
11142;DHT22;5625;50.122;19.864;2022-09-01T09:32:03;31.40;99.90
11142;DHT22;5625;50.122;19.864;2022-09-01T09:34:35;31.60;99.90
11142;DHT22;5625;50.122;19.864;2022-09-01T09:37:20;31.60;99.90
11142;DHT22;5625;50.122;19.864;2022-09-01T09:40:05;31.60;99.90
11142;DHT22;5625;50.122;19.864;2022-09-01T09:42:36;31.00;99.90
11142;DHT22;5625;50.122;19.864;2022-09-01T09:45:21;31.00;99.90
11142;DHT22;5625;50.122;19.864;2022-09-01T09:47:51;31.20;99.90
11142;DHT22;5625;50.122;19.864;2022-09-01T09:50:23;30.80;99.90
11142;DHT22;5625;50.122;19.864;2022-09-01T09:52:53;30.40;99.90
11142;DHT22;5625;50.122;19.864;2022-09-01T09:55:36;30.40;99.90
11142;DHT22;5625;50.122;19.864;2022-09-01T09:58:23;30.60;99.90
11142;DHT22;5625;50.122;19.864;2022-09-01T10:01:03;31.00;99.90
11142;DHT22;5625;50.122;19.864;2022-09-01T10:03:43;31.20;99.90
11142;DHT22;5625;50.122;19.864;2022-09-01T10:06:27;31.10;99.90
11142;DHT22;5625;50.122;19.864;2022-09-01T10:08:57;31.10;99.90
11142;DHT22;5625;50.122;19.864;2022-09-01T10:11:29;31.00;99.90
11142;DHT22;5625;50.122;19.864;2022-09-01T10:14:04;30.60;99.90
11142;DHT22;5625;50.122;19.864;2022-09-01T10:16:37;30.90;99.90
11142;DHT22;5625;50.122;19.864;2022-09-01T10:19:12;31.10;99.90
11142;DHT22;5625;50.122;19.864;2022-09-01T10:21:43;31.10;99.90
11142;DHT22;5625;50.122;19.864;2022-09-01T10:24:17;30.50;99.90
11142;DHT22;5625;50.122;19.864;2022-09-01T10:26:53;29.70;99.90
11142;DHT22;5625;50.122;19.864;2022-09-01T10:29:25;29.30;99.90
11142;DHT22;5625;50.122;19.864;2022-09-01T10:32:07;29.50;99.90
11142;DHT22;5625;50.122;19.864;2022-09-01T10:34:56;29.90;99.90
11142;DHT22;5625;50.122;19.864;2022-09-01T10:37:25;29.70;99.90
11142;DHT22;5625;50.122;19.864;2022-09-01T10:40:16;29.30;99.90
11142;DHT22;5625;50.122;19.864;2022-09-01T10:42:55;29.80;99.90
11142;DHT22;5625;50.122;19.864;2022-09-01T10:45:32;29.90;99.90
11142;DHT22;5625;50.122;19.864;2022-09-01T10:48:31;29.80;99.90
11142;DHT22;5625;50.122;19.864;2022-09-01T10:51:43;29.70;99.90
11142;DHT22;5625;50.122;19.864;2022-09-01T10:57:40;29.30;99.90
11142;DHT22;5625;50.122;19.864;2022-09-01T11:00:45;28.90;99.90
11142;DHT22;5625;50.122;19.864;2022-09-01T11:03:53;29.10;99.90
11142;DHT22;5625;50.122;19.864;2022-09-01T11:06:43;29.30;99.90
11142;DHT22;5625;50.122;19.864;2022-09-01T11:09:34;29.30;99.90
11142;DHT22;5625;50.122;19.864;2022-09-01T11:12:39;29.10;99.90
11142;DHT22;5625;50.122;19.864;2022-09-01T11:15:32;28.40;99.90
11142;DHT22;5625;50.122;19.864;2022-09-01T11:18:01;27.90;99.90
11142;DHT22;5625;50.122;19.864;2022-09-01T11:20:33;27.70;99.90
11142;DHT22;5625;50.122;19.864;2022-09-01T11:23:05;27.50;99.90
11142;DHT22;5625;50.122;19.864;2022-09-01T11:25:39;27.50;99.90
11142;DHT22;5625;50.122;19.864;2022-09-01T11:28:42;27.70;99.90
11142;DHT22;5625;50.122;19.864;2022-09-01T11:31:28;27.90;99.90
11142;DHT22;5625;50.122;19.864;2022-09-01T11:34:08;28.30;99.90
11142;DHT22;5625;50.122;19.864;2022-09-01T11:36:55;28.30;99.90
11142;DHT22;5625;50.122;19.864;2022-09-01T11:39:38;28.50;99.90
11142;DHT22;5625;50.122;19.864;2022-09-01T11:42:10;28.50;99.90
11142;DHT22;5625;50.122;19.864;2022-09-01T11:44:45;28.30;99.90
11142;DHT22;5625;50.122;19.864;2022-09-01T11:47:18;28.20;99.90
11142;DHT22;5625;50.122;19.864;2022-09-01T11:49:52;28.00;99.90
11142;DHT22;5625;50.122;19.864;2022-09-01T11:52:25;27.80;99.90
11142;DHT22;5625;50.122;19.864;2022-09-01T11:54:53;27.90;99.90
11142;DHT22;5625;50.122;19.864;2022-09-01T11:57:25;27.80;99.90
11142;DHT22;5625;50.122;19.864;2022-09-01T11:59:54;28.00;99.90
11142;DHT22;5625;50.122;19.864;2022-09-01T12:02:24;28.00;99.90
11142;DHT22;5625;50.122;19.864;2022-09-01T12:04:54;28.20;99.90
11142;DHT22;5625;50.122;19.864;2022-09-01T12:07:27;28.50;99.90
11142;DHT22;5625;50.122;19.864;2022-09-01T12:09:57;28.50;99.90
11142;DHT22;5625;50.122;19.864;2022-09-01T12:12:29;28.20;99.90
11142;DHT22;5625;50.122;19.864;2022-09-01T12:14:57;28.20;99.90
11142;DHT22;5625;50.122;19.864;2022-09-01T12:17:34;28.50;99.90
11142;DHT22;5625;50.122;19.864;2022-09-01T12:20:25;28.70;99.90
11142;DHT22;5625;50.122;19.864;2022-09-01T12:22:58;28.70;99.90
11142;DHT22;5625;50.122;19.864;2022-09-01T12:25:30;28.40;99.90
11142;DHT22;5625;50.122;19.864;2022-09-01T12:27:59;28.30;99.90
11142;DHT22;5625;50.122;19.864;2022-09-01T12:30:28;28.20;99.90
11142;DHT22;5625;50.122;19.864;2022-09-01T12:33:02;28.20;99.90
11142;DHT22;5625;50.122;19.864;2022-09-01T12:35:49;28.00;99.90
11142;DHT22;5625;50.122;19.864;2022-09-01T12:38:31;28.20;99.90
11142;DHT22;5625;50.122;19.864;2022-09-01T12:40:59;28.30;99.90
11142;DHT22;5625;50.122;19.864;2022-09-01T12:43:33;27.70;99.90
11142;DHT22;5625;50.122;19.864;2022-09-01T12:46:03;27.10;99.90
11142;DHT22;5625;50.122;19.864;2022-09-01T12:48:34;26.90;99.90
11142;DHT22;5625;50.122;19.864;2022-09-01T12:51:04;26.60;99.90
11142;DHT22;5625;50.122;19.864;2022-09-01T12:53:36;26.50;99.90
11142;DHT22;5625;50.122;19.864;2022-09-01T12:56:22;26.50;99.90
11142;DHT22;5625;50.122;19.864;2022-09-01T12:59:05;26.70;99.90
11142;DHT22;5625;50.122;19.864;2022-09-01T13:01:43;27.10;99.90
11142;DHT22;5625;50.122;19.864;2022-09-01T13:04:24;27.30;99.90
11142;DHT22;5625;50.122;19.864;2022-09-01T13:06:55;27.50;99.90
11142;DHT22;5625;50.122;19.864;2022-09-01T13:09:24;27.40;99.90
11142;DHT22;5625;50.122;19.864;2022-09-01T13:11:52;27.20;99.90
11142;DHT22;5625;50.122;19.864;2022-09-01T13:14:36;27.10;99.90
11142;DHT22;5625;50.122;19.864;2022-09-01T13:17:04;26.50;99.90
11142;DHT22;5625;50.122;19.864;2022-09-01T13:19:40;26.40;99.90
11142;DHT22;5625;50.122;19.864;2022-09-01T13:22:09;26.20;99.90
11142;DHT22;5625;50.122;19.864;2022-09-01T13:24:38;26.10;99.90
11142;DHT22;5625;50.122;19.864;2022-09-01T13:27:06;26.00;99.90
11142;DHT22;5625;50.122;19.864;2022-09-01T13:29:50;25.80;99.90
11142;DHT22;5625;50.122;19.864;2022-09-01T13:32:20;25.70;99.90
11142;DHT22;5625;50.122;19.864;2022-09-01T13:34:51;25.60;99.90
11142;DHT22;5625;50.122;19.864;2022-09-01T13:37:20;25.70;99.90
11142;DHT22;5625;50.122;19.864;2022-09-01T13:39:49;25.50;99.90
11142;DHT22;5625;50.122;19.864;2022-09-01T13:42:18;25.50;99.90
11142;DHT22;5625;50.122;19.864;2022-09-01T13:44:46;25.50;99.90
11142;DHT22;5625;50.122;19.864;2022-09-01T13:47:21;25.60;99.90
11142;DHT22;5625;50.122;19.864;2022-09-01T13:49:57;25.50;99.90
11142;DHT22;5625;50.122;19.864;2022-09-01T13:52:37;25.40;99.90
11142;DHT22;5625;50.122;19.864;2022-09-01T13:55:13;25.30;99.90
11142;DHT22;5625;50.122;19.864;2022-09-01T13:57:41;25.00;99.90
11142;DHT22;5625;50.122;19.864;2022-09-01T14:00:11;24.90;99.90
11142;DHT22;5625;50.122;19.864;2022-09-01T14:02:44;24.70;99.90
11142;DHT22;5625;50.122;19.864;2022-09-01T14:05:20;24.60;99.90
11142;DHT22;5625;50.122;19.864;2022-09-01T14:07:48;24.70;99.90
11142;DHT22;5625;50.122;19.864;2022-09-01T14:10:19;24.90;99.90
11142;DHT22;5625;50.122;19.864;2022-09-01T14:12:48;24.90;99.90
11142;DHT22;5625;50.122;19.864;2022-09-01T14:15:18;24.70;99.90
11142;DHT22;5625;50.122;19.864;2022-09-01T14:17:54;24.60;99.90
11142;DHT22;5625;50.122;19.864;2022-09-01T14:20:24;24.50;99.90
11142;DHT22;5625;50.122;19.864;2022-09-01T14:22:52;24.50;99.90
11142;DHT22;5625;50.122;19.864;2022-09-01T14:25:23;24.60;99.90
11142;DHT22;5625;50.122;19.864;2022-09-01T14:27:51;24.70;99.90
11142;DHT22;5625;50.122;19.864;2022-09-01T14:30:22;24.50;99.90
11142;DHT22;5625;50.122;19.864;2022-09-01T14:32:57;24.50;99.90
11142;DHT22;5625;50.122;19.864;2022-09-01T14:35:25;24.60;99.90
11142;DHT22;5625;50.122;19.864;2022-09-01T14:38:01;24.60;99.90
11142;DHT22;5625;50.122;19.864;2022-09-01T14:40:32;24.40;99.90
11142;DHT22;5625;50.122;19.864;2022-09-01T14:43:04;24.40;99.90
11142;DHT22;5625;50.122;19.864;2022-09-01T14:45:32;24.20;99.90
11142;DHT22;5625;50.122;19.864;2022-09-01T14:48:02;24.10;99.90
11142;DHT22;5625;50.122;19.864;2022-09-01T14:50:33;24.00;99.90
11142;DHT22;5625;50.122;19.864;2022-09-01T14:53:05;23.90;99.90
11142;DHT22;5625;50.122;19.864;2022-09-01T14:55:35;23.90;99.90
11142;DHT22;5625;50.122;19.864;2022-09-01T14:58:03;23.70;99.90
11142;DHT22;5625;50.122;19.864;2022-09-01T15:00:32;23.60;99.90
11142;DHT22;5625;50.122;19.864;2022-09-01T15:03:02;23.40;99.90
11142;DHT22;5625;50.122;19.864;2022-09-01T15:05:30;23.40;99.90
11142;DHT22;5625;50.122;19.864;2022-09-01T15:08:06;23.20;99.90
11142;DHT22;5625;50.122;19.864;2022-09-01T15:10:40;23.30;99.90
11142;DHT22;5625;50.122;19.864;2022-09-01T15:13:08;23.20;99.90
11142;DHT22;5625;50.122;19.864;2022-09-01T15:15:37;23.20;99.90
11142;DHT22;5625;50.122;19.864;2022-09-01T15:18:05;23.30;99.90
11142;DHT22;5625;50.122;19.864;2022-09-01T15:20:38;23.30;99.90
11142;DHT22;5625;50.122;19.864;2022-09-01T15:23:15;23.10;99.90
11142;DHT22;5625;50.122;19.864;2022-09-01T15:25:45;23.10;99.90
11142;DHT22;5625;50.122;19.864;2022-09-01T15:28:14;23.10;99.90
11142;DHT22;5625;50.122;19.864;2022-09-01T15:30:43;23.10;99.90
11142;DHT22;5625;50.122;19.864;2022-09-01T15:33:12;23.20;99.90
11142;DHT22;5625;50.122;19.864;2022-09-01T15:35:42;23.50;99.90
11142;DHT22;5625;50.122;19.864;2022-09-01T15:38:11;23.70;99.90
11142;DHT22;5625;50.122;19.864;2022-09-01T15:40:46;23.50;99.90
11142;DHT22;5625;50.122;19.864;2022-09-01T15:43:24;23.50;99.90
11142;DHT22;5625;50.122;19.864;2022-09-01T15:45:53;23.50;99.90
11142;DHT22;5625;50.122;19.864;2022-09-01T15:48:25;23.40;99.90
11142;DHT22;5625;50.122;19.864;2022-09-01T15:50:56;23.20;99.90
11142;DHT22;5625;50.122;19.864;2022-09-01T15:53:27;23.10;99.90
11142;DHT22;5625;50.122;19.864;2022-09-01T15:55:59;23.10;99.90
11142;DHT22;5625;50.122;19.864;2022-09-01T15:58:27;23.00;99.90
11142;DHT22;5625;50.122;19.864;2022-09-01T16:01:16;23.00;99.90
11142;DHT22;5625;50.122;19.864;2022-09-01T16:03:45;22.90;99.90
11142;DHT22;5625;50.122;19.864;2022-09-01T16:06:13;22.90;99.90
11142;DHT22;5625;50.122;19.864;2022-09-01T16:08:41;22.80;99.90
11142;DHT22;5625;50.122;19.864;2022-09-01T16:11:11;22.70;99.90
11142;DHT22;5625;50.122;19.864;2022-09-01T16:13:40;22.60;99.90
11142;DHT22;5625;50.122;19.864;2022-09-01T16:16:21;22.50;99.90
11142;DHT22;5625;50.122;19.864;2022-09-01T16:18:55;22.50;99.90